sensor_id;sensor_type;location;lat;lon;timestamp;P1;durP1;ratioP1;P2;durP2;ratioP2
73168;SDS011;61379;59.732;30.468;2023-09-08T00:02:14;4.93;;;3.92;;
73168;SDS011;61379;59.732;30.468;2023-09-08T00:04:42;5.95;;;4.10;;
73168;SDS011;61379;59.732;30.468;2023-09-08T00:07:08;5.00;;;3.70;;
73168;SDS011;61379;59.732;30.468;2023-09-08T00:09:35;7.32;;;3.90;;
73168;SDS011;61379;59.732;30.468;2023-09-08T00:12:02;5.75;;;3.85;;
73168;SDS011;61379;59.732;30.468;2023-09-08T00:14:29;4.45;;;3.90;;
73168;SDS011;61379;59.732;30.468;2023-09-08T00:16:55;7.82;;;4.30;;
73168;SDS011;61379;59.732;30.468;2023-09-08T00:19:24;4.10;;;3.63;;
73168;SDS011;61379;59.732;30.468;2023-09-08T00:21:51;5.50;;;3.92;;
73168;SDS011;61379;59.732;30.468;2023-09-08T00:24:18;9.57;;;3.83;;
73168;SDS011;61379;59.732;30.468;2023-09-08T00:26:45;6.20;;;3.65;;
73168;SDS011;61379;59.732;30.468;2023-09-08T00:29:12;7.57;;;4.22;;
73168;SDS011;61379;59.732;30.468;2023-09-08T00:31:38;8.88;;;4.68;;
73168;SDS011;61379;59.732;30.468;2023-09-08T00:34:05;6.63;;;3.75;;
73168;SDS011;61379;59.732;30.468;2023-09-08T00:36:33;8.60;;;3.67;;
73168;SDS011;61379;59.732;30.468;2023-09-08T00:39:00;9.07;;;3.97;;
73168;SDS011;61379;59.732;30.468;2023-09-08T00:41:27;6.07;;;4.00;;
73168;SDS011;61379;59.732;30.468;2023-09-08T00:43:54;4.55;;;3.63;;
73168;SDS011;61379;59.732;30.468;2023-09-08T00:46:21;4.85;;;3.92;;
73168;SDS011;61379;59.732;30.468;2023-09-08T00:48:48;6.53;;;4.20;;
73168;SDS011;61379;59.732;30.468;2023-09-08T00:51:15;6.32;;;4.40;;
73168;SDS011;61379;59.732;30.468;2023-09-08T00:53:43;7.35;;;3.90;;
73168;SDS011;61379;59.732;30.468;2023-09-08T00:56:10;8.70;;;4.53;;
73168;SDS011;61379;59.732;30.468;2023-09-08T00:58:37;4.90;;;4.40;;
73168;SDS011;61379;59.732;30.468;2023-09-08T01:01:03;5.63;;;4.18;;
73168;SDS011;61379;59.732;30.468;2023-09-08T01:03:31;7.10;;;4.13;;
73168;SDS011;61379;59.732;30.468;2023-09-08T01:05:58;8.30;;;4.30;;
73168;SDS011;61379;59.732;30.468;2023-09-08T01:08:25;5.57;;;4.00;;
73168;SDS011;61379;59.732;30.468;2023-09-08T01:10:54;5.38;;;3.72;;
73168;SDS011;61379;59.732;30.468;2023-09-08T01:13:21;6.03;;;4.00;;
73168;SDS011;61379;59.732;30.468;2023-09-08T01:15:49;8.68;;;4.25;;
73168;SDS011;61379;59.732;30.468;2023-09-08T01:18:15;6.45;;;4.07;;
73168;SDS011;61379;59.732;30.468;2023-09-08T01:20:48;7.53;;;4.03;;
73168;SDS011;61379;59.732;30.468;2023-09-08T01:23:21;6.68;;;4.30;;
73168;SDS011;61379;59.732;30.468;2023-09-08T01:25:50;9.93;;;4.35;;
73168;SDS011;61379;59.732;30.468;2023-09-08T01:28:19;6.57;;;4.75;;
73168;SDS011;61379;59.732;30.468;2023-09-08T01:30:46;6.30;;;4.13;;
73168;SDS011;61379;59.732;30.468;2023-09-08T01:33:14;5.35;;;3.88;;
73168;SDS011;61379;59.732;30.468;2023-09-08T01:35:41;9.35;;;4.10;;
73168;SDS011;61379;59.732;30.468;2023-09-08T01:38:08;6.65;;;5.53;;
73168;SDS011;61379;59.732;30.468;2023-09-08T01:40:35;7.80;;;5.43;;
73168;SDS011;61379;59.732;30.468;2023-09-08T01:43:03;6.35;;;4.25;;
73168;SDS011;61379;59.732;30.468;2023-09-08T01:45:30;5.15;;;3.70;;
73168;SDS011;61379;59.732;30.468;2023-09-08T01:47:57;8.48;;;4.90;;
73168;SDS011;61379;59.732;30.468;2023-09-08T01:50:24;8.82;;;4.95;;
73168;SDS011;61379;59.732;30.468;2023-09-08T01:52:50;6.65;;;3.90;;
73168;SDS011;61379;59.732;30.468;2023-09-08T01:55:17;7.35;;;4.57;;
73168;SDS011;61379;59.732;30.468;2023-09-08T01:57:45;7.50;;;4.55;;
73168;SDS011;61379;59.732;30.468;2023-09-08T02:00:14;7.40;;;4.40;;
73168;SDS011;61379;59.732;30.468;2023-09-08T02:02:41;9.27;;;4.53;;
73168;SDS011;61379;59.732;30.468;2023-09-08T02:05:08;8.57;;;4.75;;
73168;SDS011;61379;59.732;30.468;2023-09-08T02:07:35;7.55;;;4.60;;
73168;SDS011;61379;59.732;30.468;2023-09-08T02:10:02;6.93;;;6.25;;
73168;SDS011;61379;59.732;30.468;2023-09-08T02:12:33;7.40;;;5.30;;
73168;SDS011;61379;59.732;30.468;2023-09-08T02:15:01;10.60;;;5.15;;
73168;SDS011;61379;59.732;30.468;2023-09-08T02:17:34;7.25;;;4.93;;
73168;SDS011;61379;59.732;30.468;2023-09-08T02:20:01;7.35;;;4.95;;
73168;SDS011;61379;59.732;30.468;2023-09-08T02:22:31;10.40;;;5.45;;
73168;SDS011;61379;59.732;30.468;2023-09-08T02:24:58;11.02;;;5.10;;
73168;SDS011;61379;59.732;30.468;2023-09-08T02:27:25;9.02;;;5.07;;
73168;SDS011;61379;59.732;30.468;2023-09-08T02:29:52;8.27;;;5.18;;
73168;SDS011;61379;59.732;30.468;2023-09-08T02:32:18;6.80;;;6.03;;
73168;SDS011;61379;59.732;30.468;2023-09-08T02:34:47;8.25;;;5.38;;
73168;SDS011;61379;59.732;30.468;2023-09-08T02:37:15;10.25;;;5.45;;
73168;SDS011;61379;59.732;30.468;2023-09-08T02:39:43;8.40;;;4.80;;
73168;SDS011;61379;59.732;30.468;2023-09-08T02:42:10;8.75;;;5.20;;
73168;SDS011;61379;59.732;30.468;2023-09-08T02:44:37;9.13;;;5.82;;
73168;SDS011;61379;59.732;30.468;2023-09-08T02:47:03;9.60;;;5.82;;
73168;SDS011;61379;59.732;30.468;2023-09-08T02:49:31;6.68;;;6.07;;
73168;SDS011;61379;59.732;30.468;2023-09-08T02:52:00;7.28;;;6.50;;
73168;SDS011;61379;59.732;30.468;2023-09-08T02:54:26;8.23;;;7.47;;
73168;SDS011;61379;59.732;30.468;2023-09-08T02:56:53;7.68;;;6.88;;
73168;SDS011;61379;59.732;30.468;2023-09-08T02:59:20;7.57;;;6.80;;
73168;SDS011;61379;59.732;30.468;2023-09-08T03:01:47;8.75;;;7.07;;
73168;SDS011;61379;59.732;30.468;2023-09-08T03:04:14;10.07;;;6.78;;
73168;SDS011;61379;59.732;30.468;2023-09-08T03:06:40;8.68;;;7.88;;
73168;SDS011;61379;59.732;30.468;2023-09-08T03:09:09;7.75;;;6.05;;
73168;SDS011;61379;59.732;30.468;2023-09-08T03:11:35;8.55;;;6.05;;
73168;SDS011;61379;59.732;30.468;2023-09-08T03:14:02;11.95;;;6.70;;
73168;SDS011;61379;59.732;30.468;2023-09-08T03:16:30;7.82;;;5.78;;
73168;SDS011;61379;59.732;30.468;2023-09-08T03:18:56;7.18;;;5.70;;
73168;SDS011;61379;59.732;30.468;2023-09-08T03:21:24;9.07;;;6.05;;
73168;SDS011;61379;59.732;30.468;2023-09-08T03:23:50;7.30;;;6.10;;
73168;SDS011;61379;59.732;30.468;2023-09-08T03:26:19;7.35;;;6.60;;
73168;SDS011;61379;59.732;30.468;2023-09-08T03:28:45;6.93;;;6.07;;
73168;SDS011;61379;59.732;30.468;2023-09-08T03:31:12;7.72;;;6.38;;
73168;SDS011;61379;59.732;30.468;2023-09-08T03:33:39;8.05;;;6.70;;
73168;SDS011;61379;59.732;30.468;2023-09-08T03:36:06;10.80;;;6.75;;
73168;SDS011;61379;59.732;30.468;2023-09-08T03:38:32;11.85;;;5.97;;
73168;SDS011;61379;59.732;30.468;2023-09-08T03:41:02;11.50;;;6.30;;
73168;SDS011;61379;59.732;30.468;2023-09-08T03:43:30;6.93;;;6.10;;
73168;SDS011;61379;59.732;30.468;2023-09-08T03:45:57;6.18;;;5.22;;
73168;SDS011;61379;59.732;30.468;2023-09-08T03:48:23;11.63;;;6.00;;
73168;SDS011;61379;59.732;30.468;2023-09-08T03:50:50;9.95;;;6.00;;
73168;SDS011;61379;59.732;30.468;2023-09-08T03:53:17;10.23;;;5.90;;
73168;SDS011;61379;59.732;30.468;2023-09-08T03:55:44;8.65;;;7.80;;
73168;SDS011;61379;59.732;30.468;2023-09-08T03:58:11;12.45;;;7.50;;
73168;SDS011;61379;59.732;30.468;2023-09-08T04:00:39;8.15;;;6.25;;
73168;SDS011;61379;59.732;30.468;2023-09-08T04:03:06;8.27;;;6.13;;
73168;SDS011;61379;59.732;30.468;2023-09-08T04:05:32;10.13;;;7.57;;
73168;SDS011;61379;59.732;30.468;2023-09-08T04:07:59;9.90;;;6.72;;
73168;SDS011;61379;59.732;30.468;2023-09-08T04:10:26;7.15;;;6.45;;
73168;SDS011;61379;59.732;30.468;2023-09-08T04:12:53;7.57;;;6.13;;
73168;SDS011;61379;59.732;30.468;2023-09-08T04:15:20;8.90;;;6.03;;
73168;SDS011;61379;59.732;30.468;2023-09-08T04:17:48;11.02;;;6.85;;
73168;SDS011;61379;59.732;30.468;2023-09-08T04:20:15;7.60;;;6.70;;
73168;SDS011;61379;59.732;30.468;2023-09-08T04:22:42;17.38;;;7.47;;
73168;SDS011;61379;59.732;30.468;2023-09-08T04:25:09;10.77;;;7.25;;
73168;SDS011;61379;59.732;30.468;2023-09-08T04:27:36;15.93;;;8.15;;
73168;SDS011;61379;59.732;30.468;2023-09-08T04:30:03;10.35;;;9.32;;
73168;SDS011;61379;59.732;30.468;2023-09-08T04:32:31;14.32;;;7.47;;
73168;SDS011;61379;59.732;30.468;2023-09-08T04:35:00;10.52;;;7.20;;
73168;SDS011;61379;59.732;30.468;2023-09-08T04:37:28;11.35;;;7.40;;
73168;SDS011;61379;59.732;30.468;2023-09-08T04:39:56;12.18;;;6.57;;
73168;SDS011;61379;59.732;30.468;2023-09-08T04:42:22;10.10;;;7.20;;
73168;SDS011;61379;59.732;30.468;2023-09-08T04:44:49;12.80;;;7.18;;
73168;SDS011;61379;59.732;30.468;2023-09-08T04:47:16;9.43;;;7.22;;
73168;SDS011;61379;59.732;30.468;2023-09-08T04:49:43;14.15;;;7.45;;
73168;SDS011;61379;59.732;30.468;2023-09-08T04:52:11;12.98;;;6.65;;
73168;SDS011;61379;59.732;30.468;2023-09-08T04:54:39;11.98;;;6.32;;
73168;SDS011;61379;59.732;30.468;2023-09-08T04:57:05;11.38;;;6.60;;
73168;SDS011;61379;59.732;30.468;2023-09-08T04:59:32;12.02;;;6.40;;
73168;SDS011;61379;59.732;30.468;2023-09-08T05:02:02;13.63;;;7.07;;
73168;SDS011;61379;59.732;30.468;2023-09-08T05:04:29;11.63;;;7.88;;
73168;SDS011;61379;59.732;30.468;2023-09-08T05:06:55;12.68;;;7.53;;
73168;SDS011;61379;59.732;30.468;2023-09-08T05:09:24;8.45;;;6.97;;
73168;SDS011;61379;59.732;30.468;2023-09-08T05:11:50;8.20;;;6.20;;
73168;SDS011;61379;59.732;30.468;2023-09-08T05:14:17;11.13;;;6.35;;
73168;SDS011;61379;59.732;30.468;2023-09-08T05:16:44;11.32;;;7.13;;
73168;SDS011;61379;59.732;30.468;2023-09-08T05:19:12;13.02;;;6.22;;
73168;SDS011;61379;59.732;30.468;2023-09-08T05:21:39;12.43;;;6.07;;
73168;SDS011;61379;59.732;30.468;2023-09-08T05:24:07;12.02;;;6.10;;
73168;SDS011;61379;59.732;30.468;2023-09-08T05:26:36;8.23;;;5.75;;
73168;SDS011;61379;59.732;30.468;2023-09-08T05:29:02;9.07;;;5.72;;
73168;SDS011;61379;59.732;30.468;2023-09-08T07:21:36;6.53;;;5.25;;
73168;SDS011;61379;59.732;30.468;2023-09-08T07:24:02;6.30;;;5.80;;
73168;SDS011;61379;59.732;30.468;2023-09-08T07:26:28;6.53;;;5.80;;
73168;SDS011;61379;59.732;30.468;2023-09-08T07:28:55;7.30;;;5.93;;
73168;SDS011;61379;59.732;30.468;2023-09-08T07:31:21;8.43;;;6.60;;
73168;SDS011;61379;59.732;30.468;2023-09-08T07:33:47;11.90;;;5.90;;
73168;SDS011;61379;59.732;30.468;2023-09-08T07:36:13;10.45;;;5.97;;
73168;SDS011;61379;59.732;30.468;2023-09-08T07:38:40;8.07;;;5.60;;
73168;SDS011;61379;59.732;30.468;2023-09-08T07:41:06;6.38;;;5.47;;
73168;SDS011;61379;59.732;30.468;2023-09-08T07:43:33;7.75;;;5.65;;
73168;SDS011;61379;59.732;30.468;2023-09-08T07:45:59;6.47;;;4.68;;
73168;SDS011;61379;59.732;30.468;2023-09-08T07:48:25;5.90;;;5.35;;
73168;SDS011;61379;59.732;30.468;2023-09-08T07:50:51;7.03;;;5.15;;
73168;SDS011;61379;59.732;30.468;2023-09-08T07:53:17;7.85;;;6.15;;
73168;SDS011;61379;59.732;30.468;2023-09-08T07:55:44;7.18;;;5.65;;
73168;SDS011;61379;59.732;30.468;2023-09-08T07:58:10;10.85;;;5.65;;
73168;SDS011;61379;59.732;30.468;2023-09-08T08:00:36;6.45;;;5.50;;
73168;SDS011;61379;59.732;30.468;2023-09-08T08:03:02;6.53;;;5.93;;
73168;SDS011;61379;59.732;30.468;2023-09-08T08:05:28;6.65;;;6.05;;
73168;SDS011;61379;59.732;30.468;2023-09-08T08:07:54;8.48;;;5.80;;
73168;SDS011;61379;59.732;30.468;2023-09-08T08:10:20;11.30;;;6.32;;
73168;SDS011;61379;59.732;30.468;2023-09-08T08:12:47;8.05;;;5.38;;
73168;SDS011;61379;59.732;30.468;2023-09-08T08:15:13;9.75;;;5.43;;
73168;SDS011;61379;59.732;30.468;2023-09-08T08:17:40;5.40;;;4.90;;
73168;SDS011;61379;59.732;30.468;2023-09-08T08:20:07;7.75;;;5.97;;
73168;SDS011;61379;59.732;30.468;2023-09-08T08:22:35;6.75;;;5.65;;
73168;SDS011;61379;59.732;30.468;2023-09-08T08:25:02;9.13;;;5.13;;
73168;SDS011;61379;59.732;30.468;2023-09-08T08:27:32;7.72;;;6.20;;
73168;SDS011;61379;59.732;30.468;2023-09-08T08:30:00;6.72;;;6.07;;
73168;SDS011;61379;59.732;30.468;2023-09-08T08:32:43;8.50;;;7.57;;
73168;SDS011;61379;59.732;30.468;2023-09-08T08:35:10;11.50;;;5.97;;
73168;SDS011;61379;59.732;30.468;2023-09-08T08:37:38;5.97;;;4.85;;
73168;SDS011;61379;59.732;30.468;2023-09-08T08:40:05;5.57;;;4.72;;
73168;SDS011;61379;59.732;30.468;2023-09-08T08:42:32;8.55;;;5.40;;
73168;SDS011;61379;59.732;30.468;2023-09-08T08:44:58;7.63;;;5.10;;
73168;SDS011;61379;59.732;30.468;2023-09-08T08:47:26;9.45;;;4.70;;
73168;SDS011;61379;59.732;30.468;2023-09-08T08:49:53;6.00;;;5.30;;
73168;SDS011;61379;59.732;30.468;2023-09-08T08:52:19;6.97;;;5.63;;
73168;SDS011;61379;59.732;30.468;2023-09-08T08:54:45;6.40;;;5.38;;
73168;SDS011;61379;59.732;30.468;2023-09-08T08:57:12;9.55;;;5.88;;
73168;SDS011;61379;59.732;30.468;2023-09-08T08:59:38;6.28;;;5.35;;
73168;SDS011;61379;59.732;30.468;2023-09-08T09:02:04;6.63;;;5.50;;
73168;SDS011;61379;59.732;30.468;2023-09-08T09:04:31;9.52;;;5.10;;
73168;SDS011;61379;59.732;30.468;2023-09-08T09:06:58;6.25;;;5.65;;
73168;SDS011;61379;59.732;30.468;2023-09-08T09:09:24;9.30;;;6.05;;
73168;SDS011;61379;59.732;30.468;2023-09-08T09:11:50;7.15;;;5.88;;
73168;SDS011;61379;59.732;30.468;2023-09-08T09:14:17;8.93;;;6.55;;
73168;SDS011;61379;59.732;30.468;2023-09-08T09:16:44;7.28;;;6.68;;
73168;SDS011;61379;59.732;30.468;2023-09-08T09:19:17;6.65;;;5.90;;
73168;SDS011;61379;59.732;30.468;2023-09-08T09:21:47;7.68;;;6.15;;
73168;SDS011;61379;59.732;30.468;2023-09-08T09:24:17;8.85;;;5.90;;
73168;SDS011;61379;59.732;30.468;2023-09-08T09:26:44;7.45;;;5.72;;
73168;SDS011;61379;59.732;30.468;2023-09-08T09:29:13;8.40;;;5.53;;
73168;SDS011;61379;59.732;30.468;2023-09-08T09:31:49;6.13;;;5.63;;
73168;SDS011;61379;59.732;30.468;2023-09-08T09:34:16;6.32;;;5.72;;
73168;SDS011;61379;59.732;30.468;2023-09-08T09:36:43;6.53;;;5.93;;
73168;SDS011;61379;59.732;30.468;2023-09-08T09:39:12;7.18;;;6.40;;
73168;SDS011;61379;59.732;30.468;2023-09-08T09:41:39;6.85;;;6.15;;
73168;SDS011;61379;59.732;30.468;2023-09-08T09:44:06;7.03;;;6.30;;
73168;SDS011;61379;59.732;30.468;2023-09-08T09:46:34;6.75;;;6.15;;
73168;SDS011;61379;59.732;30.468;2023-09-08T09:49:00;6.57;;;5.93;;
73168;SDS011;61379;59.732;30.468;2023-09-08T11:03:16;8.77;;;8.18;;
73168;SDS011;61379;59.732;30.468;2023-09-08T11:05:52;9.45;;;8.40;;
73168;SDS011;61379;59.732;30.468;2023-09-08T11:08:19;7.28;;;6.57;;
73168;SDS011;61379;59.732;30.468;2023-09-08T11:10:46;8.35;;;7.50;;
73168;SDS011;61379;59.732;30.468;2023-09-08T11:13:13;9.57;;;8.50;;
73168;SDS011;61379;59.732;30.468;2023-09-08T11:15:39;8.63;;;7.68;;
73168;SDS011;61379;59.732;30.468;2023-09-08T11:18:06;7.70;;;7.00;;
73168;SDS011;61379;59.732;30.468;2023-09-08T11:20:35;7.95;;;7.25;;
73168;SDS011;61379;59.732;30.468;2023-09-08T11:23:02;8.10;;;7.40;;
73168;SDS011;61379;59.732;30.468;2023-09-08T11:25:31;7.95;;;7.22;;
73168;SDS011;61379;59.732;30.468;2023-09-08T11:27:57;9.10;;;8.15;;
73168;SDS011;61379;59.732;30.468;2023-09-08T11:30:24;9.48;;;8.45;;
73168;SDS011;61379;59.732;30.468;2023-09-08T11:32:51;8.80;;;7.32;;
73168;SDS011;61379;59.732;30.468;2023-09-08T11:35:18;8.20;;;6.82;;
73168;SDS011;61379;59.732;30.468;2023-09-08T11:37:47;7.97;;;7.28;;
73168;SDS011;61379;59.732;30.468;2023-09-08T11:40:17;29.23;;;8.30;;
73168;SDS011;61379;59.732;30.468;2023-09-08T11:42:45;8.48;;;7.68;;
73168;SDS011;61379;59.732;30.468;2023-09-08T11:45:12;7.63;;;6.93;;
73168;SDS011;61379;59.732;30.468;2023-09-08T11:47:40;9.02;;;6.97;;
73168;SDS011;61379;59.732;30.468;2023-09-08T11:50:08;7.55;;;7.05;;
73168;SDS011;61379;59.732;30.468;2023-09-08T11:52:37;8.32;;;6.97;;
73168;SDS011;61379;59.732;30.468;2023-09-08T11:55:05;7.60;;;6.80;;
73168;SDS011;61379;59.732;30.468;2023-09-08T11:57:32;8.85;;;7.93;;
73168;SDS011;61379;59.732;30.468;2023-09-08T11:59:59;11.32;;;7.88;;
73168;SDS011;61379;59.732;30.468;2023-09-08T12:02:33;10.73;;;8.23;;
73168;SDS011;61379;59.732;30.468;2023-09-08T12:09:53;8.30;;;7.60;;
73168;SDS011;61379;59.732;30.468;2023-09-08T12:12:21;8.55;;;7.68;;
73168;SDS011;61379;59.732;30.468;2023-09-08T12:14:48;7.38;;;6.78;;
73168;SDS011;61379;59.732;30.468;2023-09-08T12:17:15;8.18;;;7.47;;
73168;SDS011;61379;59.732;30.468;2023-09-08T12:19:43;7.30;;;6.68;;
73168;SDS011;61379;59.732;30.468;2023-09-08T12:22:10;16.27;;;7.78;;
73168;SDS011;61379;59.732;30.468;2023-09-08T12:24:46;8.73;;;7.88;;
73168;SDS011;61379;59.732;30.468;2023-09-08T12:27:13;11.50;;;8.02;;
73168;SDS011;61379;59.732;30.468;2023-09-08T12:29:44;9.50;;;6.93;;
73168;SDS011;61379;59.732;30.468;2023-09-08T12:32:17;8.68;;;7.60;;
73168;SDS011;61379;59.732;30.468;2023-09-08T12:34:44;8.25;;;7.35;;
73168;SDS011;61379;59.732;30.468;2023-09-08T12:37:11;7.25;;;6.15;;
73168;SDS011;61379;59.732;30.468;2023-09-08T12:39:38;7.68;;;7.07;;
73168;SDS011;61379;59.732;30.468;2023-09-08T12:42:05;7.47;;;6.78;;
73168;SDS011;61379;59.732;30.468;2023-09-08T12:44:31;8.90;;;7.95;;
73168;SDS011;61379;59.732;30.468;2023-09-08T12:47:00;8.13;;;7.32;;
73168;SDS011;61379;59.732;30.468;2023-09-08T12:49:27;7.65;;;7.03;;
73168;SDS011;61379;59.732;30.468;2023-09-08T12:51:54;7.35;;;6.70;;
73168;SDS011;61379;59.732;30.468;2023-09-08T12:54:21;6.95;;;6.28;;
73168;SDS011;61379;59.732;30.468;2023-09-08T12:56:48;7.72;;;6.78;;
73168;SDS011;61379;59.732;30.468;2023-09-08T12:59:16;14.02;;;8.35;;
73168;SDS011;61379;59.732;30.468;2023-09-08T13:01:43;16.67;;;8.70;;
73168;SDS011;61379;59.732;30.468;2023-09-08T13:04:11;9.90;;;7.82;;
73168;SDS011;61379;59.732;30.468;2023-09-08T13:06:38;15.27;;;7.75;;
73168;SDS011;61379;59.732;30.468;2023-09-08T13:09:04;8.93;;;7.53;;
73168;SDS011;61379;59.732;30.468;2023-09-08T13:11:32;22.40;;;8.07;;
73168;SDS011;61379;59.732;30.468;2023-09-08T13:13:59;10.27;;;8.30;;
73168;SDS011;61379;59.732;30.468;2023-09-08T13:16:26;10.38;;;8.75;;
73168;SDS011;61379;59.732;30.468;2023-09-08T13:18:53;9.02;;;8.07;;
73168;SDS011;61379;59.732;30.468;2023-09-08T13:21:21;13.13;;;8.13;;
73168;SDS011;61379;59.732;30.468;2023-09-08T13:23:48;13.80;;;8.55;;
73168;SDS011;61379;59.732;30.468;2023-09-08T13:26:15;11.00;;;7.85;;
73168;SDS011;61379;59.732;30.468;2023-09-08T13:28:42;15.10;;;7.70;;
73168;SDS011;61379;59.732;30.468;2023-09-08T13:31:09;20.65;;;8.48;;
73168;SDS011;61379;59.732;30.468;2023-09-08T13:33:36;8.95;;;8.05;;
73168;SDS011;61379;59.732;30.468;2023-09-08T13:36:03;10.00;;;7.10;;
73168;SDS011;61379;59.732;30.468;2023-09-08T13:38:31;12.40;;;7.15;;
73168;SDS011;61379;59.732;30.468;2023-09-08T13:40:58;9.90;;;7.20;;
73168;SDS011;61379;59.732;30.468;2023-09-08T13:43:24;7.63;;;6.93;;
73168;SDS011;61379;59.732;30.468;2023-09-08T13:45:51;9.85;;;7.50;;
73168;SDS011;61379;59.732;30.468;2023-09-08T13:48:18;9.80;;;7.78;;
73168;SDS011;61379;59.732;30.468;2023-09-08T13:50:45;12.35;;;8.27;;
73168;SDS011;61379;59.732;30.468;2023-09-08T13:53:11;14.20;;;8.20;;
73168;SDS011;61379;59.732;30.468;2023-09-08T13:55:40;13.10;;;7.93;;
73168;SDS011;61379;59.732;30.468;2023-09-08T13:58:06;9.68;;;6.32;;
73168;SDS011;61379;59.732;30.468;2023-09-08T14:00:33;11.02;;;7.50;;
73168;SDS011;61379;59.732;30.468;2023-09-08T14:03:00;12.18;;;9.13;;
73168;SDS011;61379;59.732;30.468;2023-09-08T14:05:27;13.90;;;8.43;;
73168;SDS011;61379;59.732;30.468;2023-09-08T14:07:53;29.85;;;12.02;;
73168;SDS011;61379;59.732;30.468;2023-09-08T14:10:20;13.00;;;9.00;;
73168;SDS011;61379;59.732;30.468;2023-09-08T14:12:48;12.48;;;6.45;;
73168;SDS011;61379;59.732;30.468;2023-09-08T14:15:15;15.43;;;8.75;;
73168;SDS011;61379;59.732;30.468;2023-09-08T14:17:42;12.80;;;8.05;;
73168;SDS011;61379;59.732;30.468;2023-09-08T14:20:10;7.65;;;6.85;;
73168;SDS011;61379;59.732;30.468;2023-09-08T14:22:36;8.48;;;7.28;;
73168;SDS011;61379;59.732;30.468;2023-09-08T14:25:04;9.10;;;7.45;;
73168;SDS011;61379;59.732;30.468;2023-09-08T14:27:31;7.75;;;7.07;;
73168;SDS011;61379;59.732;30.468;2023-09-08T14:30:00;9.27;;;7.40;;
73168;SDS011;61379;59.732;30.468;2023-09-08T14:32:30;12.85;;;7.75;;
73168;SDS011;61379;59.732;30.468;2023-09-08T14:34:56;13.48;;;7.13;;
73168;SDS011;61379;59.732;30.468;2023-09-08T14:37:23;9.15;;;7.20;;
73168;SDS011;61379;59.732;30.468;2023-09-08T14:39:50;7.72;;;6.82;;
73168;SDS011;61379;59.732;30.468;2023-09-08T14:42:17;15.38;;;7.18;;
73168;SDS011;61379;59.732;30.468;2023-09-08T14:44:43;7.85;;;7.05;;
73168;SDS011;61379;59.732;30.468;2023-09-08T14:47:12;8.50;;;7.15;;
73168;SDS011;61379;59.732;30.468;2023-09-08T14:49:39;9.82;;;7.43;;
73168;SDS011;61379;59.732;30.468;2023-09-08T14:52:06;10.85;;;7.13;;
73168;SDS011;61379;59.732;30.468;2023-09-08T14:54:33;10.65;;;7.05;;
73168;SDS011;61379;59.732;30.468;2023-09-08T14:57:00;8.30;;;7.07;;
73168;SDS011;61379;59.732;30.468;2023-09-08T14:59:26;13.35;;;6.95;;
73168;SDS011;61379;59.732;30.468;2023-09-08T15:01:53;8.80;;;6.45;;
73168;SDS011;61379;59.732;30.468;2023-09-08T15:04:21;12.80;;;9.32;;
73168;SDS011;61379;59.732;30.468;2023-09-08T15:06:48;9.82;;;8.23;;
73168;SDS011;61379;59.732;30.468;2023-09-08T15:09:15;8.93;;;8.18;;
73168;SDS011;61379;59.732;30.468;2023-09-08T15:11:42;16.60;;;7.78;;
73168;SDS011;61379;59.732;30.468;2023-09-08T15:14:09;9.43;;;7.50;;
73168;SDS011;61379;59.732;30.468;2023-09-08T15:16:36;9.05;;;7.18;;
73168;SDS011;61379;59.732;30.468;2023-09-08T15:19:03;9.02;;;7.50;;
73168;SDS011;61379;59.732;30.468;2023-09-08T15:21:31;8.40;;;7.20;;
73168;SDS011;61379;59.732;30.468;2023-09-08T15:23:58;7.20;;;6.50;;
73168;SDS011;61379;59.732;30.468;2023-09-08T15:26:25;10.23;;;6.70;;
73168;SDS011;61379;59.732;30.468;2023-09-08T15:28:52;8.93;;;6.80;;
73168;SDS011;61379;59.732;30.468;2023-09-08T15:31:18;12.30;;;6.63;;
73168;SDS011;61379;59.732;30.468;2023-09-08T15:33:45;7.72;;;6.95;;
73168;SDS011;61379;59.732;30.468;2023-09-08T15:36:12;14.48;;;6.80;;
73168;SDS011;61379;59.732;30.468;2023-09-08T15:38:40;59.47;;;10.32;;
73168;SDS011;61379;59.732;30.468;2023-09-08T15:41:14;18.63;;;7.70;;
73168;SDS011;61379;59.732;30.468;2023-09-08T15:43:45;14.25;;;7.95;;
73168;SDS011;61379;59.732;30.468;2023-09-08T15:46:11;12.38;;;7.47;;
73168;SDS011;61379;59.732;30.468;2023-09-08T15:48:38;8.07;;;7.07;;
73168;SDS011;61379;59.732;30.468;2023-09-08T15:51:06;13.73;;;7.35;;
73168;SDS011;61379;59.732;30.468;2023-09-08T15:53:33;14.82;;;7.40;;
73168;SDS011;61379;59.732;30.468;2023-09-08T15:56:01;9.70;;;6.05;;
73168;SDS011;61379;59.732;30.468;2023-09-08T15:58:28;9.63;;;7.57;;
73168;SDS011;61379;59.732;30.468;2023-09-08T16:00:55;8.82;;;7.25;;
73168;SDS011;61379;59.732;30.468;2023-09-08T16:03:22;16.30;;;7.63;;
73168;SDS011;61379;59.732;30.468;2023-09-08T16:05:49;11.82;;;7.65;;
73168;SDS011;61379;59.732;30.468;2023-09-08T16:08:15;12.25;;;7.93;;
73168;SDS011;61379;59.732;30.468;2023-09-08T16:10:42;11.63;;;8.43;;
73168;SDS011;61379;59.732;30.468;2023-09-08T16:13:11;12.50;;;8.15;;
73168;SDS011;61379;59.732;30.468;2023-09-08T16:15:37;19.25;;;9.18;;
73168;SDS011;61379;59.732;30.468;2023-09-08T16:18:05;19.20;;;10.60;;
73168;SDS011;61379;59.732;30.468;2023-09-08T16:20:35;12.55;;;10.23;;
73168;SDS011;61379;59.732;30.468;2023-09-08T16:23:03;12.32;;;8.50;;
73168;SDS011;61379;59.732;30.468;2023-09-08T16:25:30;20.10;;;9.93;;
73168;SDS011;61379;59.732;30.468;2023-09-08T16:27:57;19.58;;;10.73;;
73168;SDS011;61379;59.732;30.468;2023-09-08T16:30:25;24.60;;;10.82;;
73168;SDS011;61379;59.732;30.468;2023-09-08T16:32:52;29.85;;;12.00;;
73168;SDS011;61379;59.732;30.468;2023-09-08T16:35:18;43.40;;;14.52;;
73168;SDS011;61379;59.732;30.468;2023-09-08T16:37:45;28.02;;;11.10;;
73168;SDS011;61379;59.732;30.468;2023-09-08T16:40:12;65.20;;;22.70;;
73168;SDS011;61379;59.732;30.468;2023-09-08T16:42:39;26.38;;;11.25;;
73168;SDS011;61379;59.732;30.468;2023-09-08T16:45:06;38.47;;;13.45;;
73168;SDS011;61379;59.732;30.468;2023-09-08T16:47:35;44.92;;;12.88;;
73168;SDS011;61379;59.732;30.468;2023-09-08T16:50:01;37.70;;;14.43;;
73168;SDS011;61379;59.732;30.468;2023-09-08T16:52:31;40.55;;;15.70;;
73168;SDS011;61379;59.732;30.468;2023-09-08T16:54:58;38.65;;;15.82;;
73168;SDS011;61379;59.732;30.468;2023-09-08T16:57:25;27.20;;;12.82;;
73168;SDS011;61379;59.732;30.468;2023-09-08T16:59:51;28.67;;;12.30;;
73168;SDS011;61379;59.732;30.468;2023-09-08T17:02:18;28.23;;;12.13;;
73168;SDS011;61379;59.732;30.468;2023-09-08T17:04:46;41.90;;;14.63;;
73168;SDS011;61379;59.732;30.468;2023-09-08T17:07:13;21.05;;;9.63;;
73168;SDS011;61379;59.732;30.468;2023-09-08T17:09:40;27.70;;;13.13;;
73168;SDS011;61379;59.732;30.468;2023-09-08T17:12:07;46.13;;;16.27;;
73168;SDS011;61379;59.732;30.468;2023-09-08T17:14:35;21.83;;;9.98;;
73168;SDS011;61379;59.732;30.468;2023-09-08T17:17:02;37.92;;;13.13;;
73168;SDS011;61379;59.732;30.468;2023-09-08T17:19:29;24.13;;;9.32;;
73168;SDS011;61379;59.732;30.468;2023-09-08T17:21:57;29.27;;;10.73;;
73168;SDS011;61379;59.732;30.468;2023-09-08T17:24:25;25.95;;;10.93;;
73168;SDS011;61379;59.732;30.468;2023-09-08T17:26:53;27.05;;;10.95;;
73168;SDS011;61379;59.732;30.468;2023-09-08T17:29:20;21.20;;;13.40;;
73168;SDS011;61379;59.732;30.468;2023-09-08T17:31:47;31.58;;;14.30;;
73168;SDS011;61379;59.732;30.468;2023-09-08T17:34:16;23.70;;;16.55;;
73168;SDS011;61379;59.732;30.468;2023-09-08T17:36:43;20.17;;;14.57;;